< < Back
Terminal Aerodrome Forecast


Current Version              Previous Versions:   1  2  3  4  5  6  7  8  9  

Terminal Aerodrome Forecast

327
FTUS42 KTAE 290500
TAFDHN
TAF
KDHN 290528Z 2906/3006 32011KT P6SM SKC
     FM300000 32005KT P6SM SKC=



Latest METAR

719
SAUS70 KWBC 300256
MTRDHN
METAR KDHN 300253Z AUTO 33003KT 10SM BKN065 23/19 A3005 RMK AO2 SLP169
T02280194 53015 $


USA.gov is the U.S. government's official web portal to all federal, state and local government web resources and services.